Rankin, Michigan
Current Conditions -  °F | °C
As of 2:53 AM on Saturday 29 Nov 2014 (Local Time) from KFNT Reporting Station
Overcast Overcast  
Wind Chill: 22°   Ceiling: 5500
Heat Index: 31°   Visibility: 9mi
Dew Point: 23°   Wind: 10mph
Humidity: 72%   Direction: 170°S
Pressure: 30"   Gusts: NA
Location:  42.9382°N, 83.8244°W
Report Text: KFNT 290753Z AUTO 17009KT 9SM FEW033 OVC055 M01/M05 A3000 RMK AO2 SNE15 SLP170 P0000 T10061050
Loading
Personal Weather Stations






























Interactive Weather Map New forecast layout! Learn more

10-Day Weather Forecast

Advertisements
Track Severe Weather on mobile